KGFA/GFA METAR and TAF weather

Enter ICAO airport designator
Station Type Date Time Source
KGFA METAR 2019/02/21 11:28 UTC NOAA

KGFA 211128Z 36016KT 3SM -SN OVC010 M11/M12 A3001 RMK AO2A SLP237 ALSTG/SLP ESTMD $


Station Type Date Time Source
KGFA Decoded METAR 2019/02/21 11:28 UTC NOAA

Malmstrom Air Force Base, MT, United States (KGFA) 47-30N 111-11W
Feb 21, 2019 - 06:28 AM EST / 2019.02.21 1128 UTC
Wind: from the N (360 degrees) at 18 MPH (16 KT):0
Visibility: 3 mile(s):0
Sky conditions: overcast
Weather: light snow
Temperature: 12 F (-11 C)
Windchill: -5 F (-21 C):2
Dew Point: 10 F (-12 C)
Relative Humidity: 92%
Pressure (altimeter): 30.01 in. Hg (1016 hPa)
ob: KGFA 211128Z 36016KT 3SM -SN OVC010 M11/M12 A3001 RMK AO2A SLP237 ALSTG/SLP ESTMD
cycle: 11

Station Type Date Time Source
KGFA TAF 2019/02/21 10:02 UTC NOAA

TAF
AMD KGFA 211000Z 2110/2210 32009KT 3200 -SN BKN015 620159 QNH2992INS
TEMPO 2110/2115 4800 -SN BR BKN020 620209
BECMG 2115/2116 36006KT 4800 -SHSN SCT020 BKN030 610309 QNH3004INS
BECMG 2117/2118 21006KT 9999 NSW SCT030 SCT070 QNH3002INS
BECMG 2201/2202 VRB06KT 9999 SKC QNH2983INS TXM09/2110Z TNM17/2204Z


Example: see airport list